createdAt,value
2023-03-31T00:00:36.324Z,51.55
2023-03-31T00:01:36.397Z,52.99
2023-03-31T00:02:36.454Z,53.70
2023-03-31T00:03:36.527Z,53.59
2023-03-31T00:04:36.501Z,51.07
2023-03-31T00:05:36.386Z,52.08
2023-03-31T00:06:36.379Z,53.87
2023-03-31T00:07:36.375Z,49.79
2023-03-31T00:08:36.351Z,50.38
2023-03-31T00:09:36.326Z,52.85
2023-03-31T00:10:36.343Z,50.98
2023-03-31T00:11:36.380Z,52.51
2023-03-31T00:12:36.957Z,51.83
2023-03-31T00:13:36.398Z,50.85
2023-03-31T00:14:36.404Z,51.82
2023-03-31T00:15:36.402Z,51.12
2023-03-31T00:16:36.445Z,51.68
2023-03-31T00:17:36.437Z,49.80
2023-03-31T00:18:36.409Z,50.32
2023-03-31T00:19:36.406Z,49.41
2023-03-31T00:20:36.392Z,51.25
2023-03-31T00:21:36.466Z,49.52
2023-03-31T00:22:36.413Z,50.37
2023-03-31T00:23:36.396Z,51.97
2023-03-31T00:24:36.390Z,48.18
2023-03-31T00:25:36.385Z,49.52
2023-03-31T00:26:36.405Z,50.79
2023-03-31T00:27:36.395Z,51.77
2023-03-31T00:28:36.426Z,48.98
2023-03-31T00:29:36.410Z,49.71
2023-03-31T00:30:36.392Z,50.78
2023-03-31T00:31:36.404Z,50.27
2023-03-31T00:32:36.372Z,49.31
2023-03-31T00:33:36.326Z,49.81
2023-03-31T00:34:36.331Z,49.32
2023-03-31T00:35:36.400Z,48.17
2023-03-31T00:36:36.398Z,47.78
2023-03-31T00:37:36.361Z,49.80
2023-03-31T00:38:36.336Z,50.47
2023-03-31T00:39:36.351Z,49.64
2023-03-31T00:40:36.343Z,49.05
2023-03-31T00:41:36.346Z,46.96
2023-03-31T00:42:36.366Z,46.95
2023-03-31T00:43:36.397Z,47.85
2023-03-31T00:44:36.378Z,47.52
2023-03-31T00:45:36.425Z,45.46
2023-03-31T00:46:36.428Z,47.85
2023-03-31T00:47:36.525Z,45.45
2023-03-31T00:48:36.468Z,45.72
2023-03-31T00:49:36.448Z,47.94
2023-03-31T00:50:36.402Z,45.55
2023-03-31T00:51:36.373Z,45.94
2023-03-31T00:52:36.350Z,47.26
2023-03-31T00:53:36.317Z,46.04
2023-03-31T00:54:36.312Z,44.81
2023-03-31T00:55:36.298Z,46.62
2023-03-31T00:56:36.255Z,45.84
2023-03-31T00:57:36.239Z,43.56
2023-03-31T00:58:36.477Z,45.82
2023-03-31T00:59:36.262Z,46.55
2023-03-31T01:00:36.164Z,45.94
2023-03-31T01:01:36.191Z,45.27
2023-03-31T01:02:36.201Z,46.75
2023-03-31T01:03:36.118Z,44.42
2023-03-31T01:04:36.500Z,44.90
2023-03-31T01:05:36.029Z,45.58
2023-03-31T01:06:36.005Z,44.51
2023-03-31T01:07:36.050Z,44.58
2023-03-31T01:08:35.984Z,45.68
2023-03-31T01:09:35.955Z,42.98
2023-03-31T01:10:35.961Z,42.24
2023-03-31T01:11:35.955Z,44.06
2023-03-31T01:12:35.955Z,45.58
2023-03-31T01:13:35.956Z,42.89
2023-03-31T01:14:35.956Z,44.96
2023-03-31T01:15:35.922Z,43.78
2023-03-31T01:16:35.935Z,43.09
2023-03-31T01:17:36.612Z,43.53
2023-03-31T01:18:35.921Z,44.65
2023-03-31T01:19:35.871Z,44.62
2023-03-31T01:20:35.860Z,42.52
2023-03-31T01:21:35.822Z,42.08
2023-03-31T01:22:35.805Z,43.82
2023-03-31T01:23:35.810Z,42.44
2023-03-31T01:24:35.804Z,40.72
2023-03-31T01:25:35.759Z,40.07
2023-03-31T01:26:35.737Z,41.63
2023-03-31T01:27:35.699Z,42.36
2023-03-31T01:28:35.680Z,43.19
2023-03-31T01:29:35.644Z,41.09
2023-03-31T01:30:35.633Z,42.48
2023-03-31T01:31:35.702Z,43.21
2023-03-31T01:32:35.620Z,42.26
2023-03-31T01:33:35.547Z,41.81
2023-03-31T01:34:35.510Z,40.83
2023-03-31T01:35:35.515Z,40.46
2023-03-31T01:36:35.490Z,42.32
2023-03-31T01:37:35.487Z,40.94
2023-03-31T01:38:35.490Z,39.91
2023-03-31T01:39:35.468Z,42.14
2023-03-31T01:40:35.508Z,40.60
2023-03-31T01:41:35.412Z,39.72
2023-03-31T01:42:35.484Z,39.98
2023-03-31T01:43:35.392Z,39.83
2023-03-31T01:44:35.363Z,39.72
2023-03-31T01:45:35.358Z,40.51
2023-03-31T01:46:35.410Z,39.57
2023-03-31T01:47:35.366Z,39.66
2023-03-31T01:48:35.310Z,41.12
2023-03-31T01:49:35.318Z,41.33
2023-03-31T01:50:35.310Z,39.21
2023-03-31T01:51:35.293Z,39.08
2023-03-31T01:52:35.338Z,37.31
2023-03-31T01:53:35.232Z,40.55
2023-03-31T01:54:35.199Z,40.52
2023-03-31T01:55:35.180Z,37.92
2023-03-31T01:56:35.163Z,40.92
2023-03-31T01:57:35.131Z,38.60
2023-03-31T01:58:35.106Z,39.03
2023-03-31T01:59:35.078Z,37.41
2023-03-31T02:00:35.036Z,37.75
2023-03-31T02:01:37.267Z,39.56
2023-03-31T02:02:35.137Z,38.87
2023-03-31T02:03:35.020Z,38.05
2023-03-31T02:04:34.975Z,38.05
2023-03-31T02:05:34.944Z,39.10
2023-03-31T02:06:34.949Z,36.14
2023-03-31T02:07:34.942Z,37.81
2023-03-31T02:08:35.501Z,37.98
2023-03-31T02:09:34.906Z,37.63
2023-03-31T02:10:34.896Z,35.48
2023-03-31T02:11:34.870Z,36.58
2023-03-31T02:12:34.825Z,37.47
2023-03-31T02:13:34.806Z,36.92
2023-03-31T02:14:34.791Z,36.53
2023-03-31T02:15:34.758Z,36.86
2023-03-31T02:16:34.817Z,35.91
2023-03-31T02:17:34.747Z,36.79
2023-03-31T02:18:34.721Z,36.14
2023-03-31T02:19:34.707Z,35.86
2023-03-31T02:20:34.775Z,35.14
2023-03-31T02:21:34.672Z,34.26
2023-03-31T02:22:34.657Z,34.91
2023-03-31T02:23:34.640Z,33.03
2023-03-31T02:24:34.613Z,34.89
2023-03-31T02:25:34.592Z,34.72
2023-03-31T02:26:34.565Z,34.17
2023-03-31T02:27:34.541Z,33.04
2023-03-31T02:28:34.624Z,34.17
2023-03-31T02:29:34.537Z,33.16
2023-03-31T02:30:34.548Z,34.47
2023-03-31T02:31:34.603Z,32.53
2023-03-31T02:32:34.533Z,34.46
2023-03-31T02:33:34.512Z,35.27
2023-03-31T02:34:34.513Z,32.50
2023-03-31T02:35:34.541Z,33.05
2023-03-31T02:36:34.491Z,33.64
2023-03-31T02:37:34.478Z,34.17
2023-03-31T02:38:34.461Z,33.31
2023-03-31T02:39:34.454Z,32.29
2023-03-31T02:40:34.411Z,33.16
2023-03-31T02:41:34.399Z,33.01
2023-03-31T02:42:34.359Z,31.51
2023-03-31T02:43:34.336Z,29.61
2023-03-31T02:44:34.316Z,30.16
2023-03-31T02:45:34.322Z,32.26
2023-03-31T02:46:34.255Z,30.63
2023-03-31T02:47:34.291Z,30.86
2023-03-31T02:48:34.210Z,30.39
2023-03-31T02:49:34.195Z,30.41
2023-03-31T02:50:34.377Z,28.72
2023-03-31T02:51:34.529Z,29.35
2023-03-31T02:52:34.176Z,32.14
2023-03-31T02:53:34.163Z,28.58
2023-03-31T02:54:34.157Z,29.08
2023-03-31T02:55:34.139Z,30.02
2023-03-31T02:56:34.126Z,28.83
2023-03-31T02:57:34.108Z,29.83
2023-03-31T02:58:34.093Z,29.02
2023-03-31T02:59:34.065Z,30.11
2023-03-31T03:00:35.022Z,29.61
2023-03-31T03:01:34.047Z,29.74
2023-03-31T03:02:34.076Z,30.56
2023-03-31T03:03:34.067Z,30.05
2023-03-31T03:04:34.038Z,30.77
2023-03-31T03:05:34.047Z,27.98
2023-03-31T03:06:34.085Z,29.34
2023-03-31T03:07:34.094Z,28.22
2023-03-31T03:08:34.106Z,27.76
2023-03-31T03:09:34.129Z,28.42
2023-03-31T03:10:34.118Z,29.33
2023-03-31T03:11:34.129Z,28.95
2023-03-31T03:12:34.135Z,27.86
2023-03-31T03:13:34.146Z,27.89
2023-03-31T03:14:34.152Z,25.31
2023-03-31T03:15:34.172Z,26.46
2023-03-31T03:16:34.234Z,25.59
2023-03-31T03:17:34.186Z,26.79
2023-03-31T03:18:34.177Z,27.33
2023-03-31T03:19:34.187Z,25.00
2023-03-31T03:20:34.208Z,25.76
2023-03-31T03:21:34.547Z,27.36
2023-03-31T03:22:34.214Z,26.94
2023-03-31T03:23:34.226Z,25.97
2023-03-31T03:24:34.226Z,25.04
2023-03-31T03:25:34.266Z,26.79
2023-03-31T03:26:34.276Z,25.55
2023-03-31T03:27:34.303Z,26.23
2023-03-31T03:28:34.331Z,28.04
2023-03-31T03:29:34.310Z,27.40
2023-03-31T03:30:34.334Z,27.62
2023-03-31T03:31:34.333Z,26.52
2023-03-31T03:32:34.381Z,27.07
2023-03-31T03:33:34.357Z,26.90
2023-03-31T03:34:34.551Z,26.02
2023-03-31T03:35:34.398Z,25.81
2023-03-31T03:36:34.395Z,28.36
2023-03-31T03:37:34.399Z,26.91
2023-03-31T03:38:34.410Z,26.87
2023-03-31T03:39:34.428Z,26.16
2023-03-31T03:40:34.438Z,27.50
2023-03-31T03:41:34.449Z,25.85
2023-03-31T03:42:34.527Z,28.18
2023-03-31T03:43:34.475Z,25.00
2023-03-31T03:44:34.477Z,27.35
2023-03-31T03:45:34.494Z,27.32
2023-03-31T03:46:34.564Z,26.39
2023-03-31T03:47:34.532Z,28.14
2023-03-31T03:48:35.049Z,30.33
2023-03-31T03:49:34.546Z,28.18
2023-03-31T03:50:34.562Z,27.90
2023-03-31T03:51:34.589Z,30.04
2023-03-31T03:52:34.599Z,27.59
2023-03-31T03:53:34.605Z,27.93
2023-03-31T03:54:34.625Z,28.62
2023-03-31T03:55:34.635Z,30.34
2023-03-31T03:56:34.646Z,29.22
2023-03-31T03:57:34.667Z,27.98
2023-03-31T03:58:34.665Z,28.33
2023-03-31T03:59:34.689Z,27.62
2023-03-31T04:00:34.676Z,27.52
2023-03-31T04:01:34.706Z,27.55
2023-03-31T04:02:34.834Z,27.79
2023-03-31T04:03:34.723Z,27.38
2023-03-31T04:04:34.787Z,26.74
2023-03-31T04:05:34.759Z,26.95
2023-03-31T04:06:34.784Z,27.95
2023-03-31T04:07:34.794Z,26.68
2023-03-31T04:08:34.861Z,26.17
2023-03-31T04:09:34.800Z,26.28
2023-03-31T04:10:34.873Z,27.38
2023-03-31T04:11:34.834Z,27.25
2023-03-31T04:12:34.839Z,26.84
2023-03-31T04:13:34.848Z,26.40
2023-03-31T04:14:34.862Z,27.85
2023-03-31T04:15:34.878Z,27.59
2023-03-31T04:16:35.024Z,25.53
2023-03-31T04:17:35.034Z,26.14
2023-03-31T04:18:34.913Z,25.90
2023-03-31T04:19:34.932Z,28.04
2023-03-31T04:20:34.944Z,26.81
2023-03-31T04:21:35.127Z,26.46
2023-03-31T04:22:34.994Z,27.06
2023-03-31T04:23:34.990Z,27.46
2023-03-31T04:24:34.989Z,28.07
2023-03-31T04:25:34.997Z,29.13
2023-03-31T04:26:35.018Z,27.89
2023-03-31T04:27:35.040Z,28.55
2023-03-31T04:28:35.263Z,28.83
2023-03-31T04:29:35.051Z,27.23
2023-03-31T04:30:35.071Z,27.61
2023-03-31T04:31:36.416Z,29.52
2023-03-31T04:32:35.101Z,25.00
2023-03-31T04:33:35.111Z,29.15
2023-03-31T04:34:35.620Z,29.71
2023-03-31T04:35:35.142Z,28.67
2023-03-31T04:36:35.143Z,27.30
2023-03-31T04:37:35.167Z,27.89
2023-03-31T04:38:35.161Z,27.80
2023-03-31T04:39:35.169Z,26.25
2023-03-31T04:40:35.197Z,28.00
2023-03-31T04:41:35.201Z,28.50
2023-03-31T04:42:35.247Z,26.83
2023-03-31T04:43:36.055Z,28.55
2023-03-31T04:44:35.240Z,27.19
2023-03-31T04:45:35.268Z,27.38
2023-03-31T04:46:35.246Z,28.90
2023-03-31T04:47:35.298Z,28.34
2023-03-31T04:48:35.273Z,26.74
2023-03-31T04:49:35.298Z,28.33
2023-03-31T04:50:35.306Z,29.60
2023-03-31T04:51:35.321Z,29.32
2023-03-31T04:52:35.339Z,27.63
2023-03-31T04:53:35.343Z,28.60
2023-03-31T04:54:35.380Z,25.74
2023-03-31T04:55:35.385Z,25.57
2023-03-31T04:56:35.394Z,27.20
2023-03-31T04:57:35.405Z,27.03
2023-03-31T04:58:35.431Z,26.61
2023-03-31T04:59:35.456Z,28.22
2023-03-31T05:00:35.537Z,26.76
2023-03-31T05:01:35.553Z,26.73
2023-03-31T05:02:35.577Z,26.58
2023-03-31T05:03:35.693Z,27.65
2023-03-31T05:04:35.536Z,27.15
2023-03-31T05:05:35.561Z,27.83
2023-03-31T05:06:35.575Z,27.15
2023-03-31T05:07:35.607Z,27.32
2023-03-31T05:08:35.637Z,28.73
2023-03-31T05:09:35.629Z,27.37
2023-03-31T05:10:35.660Z,27.24
2023-03-31T05:11:35.675Z,27.64
2023-03-31T05:12:35.684Z,27.89
2023-03-31T05:13:35.694Z,25.81
2023-03-31T05:14:35.719Z,26.93
2023-03-31T05:15:35.735Z,28.17
2023-03-31T05:16:35.783Z,26.47
2023-03-31T05:17:35.815Z,26.76
2023-03-31T05:18:35.797Z,28.15
2023-03-31T05:19:35.803Z,29.90
2023-03-31T05:20:35.878Z,27.51
2023-03-31T05:21:35.846Z,27.77
2023-03-31T05:22:35.864Z,27.88
2023-03-31T05:23:35.875Z,26.00
2023-03-31T05:24:35.896Z,25.60
2023-03-31T05:25:35.908Z,29.13
2023-03-31T05:26:35.925Z,34.18
2023-03-31T05:27:35.988Z,35.21
2023-03-31T05:28:35.940Z,37.41
2023-03-31T05:29:35.943Z,40.99
2023-03-31T05:30:36.583Z,44.86
2023-03-31T05:31:35.992Z,53.76
2023-03-31T05:32:35.958Z,67.35
2023-03-31T05:33:35.921Z,73.93
2023-03-31T05:34:35.916Z,75.69
2023-03-31T05:35:35.918Z,89.08
2023-03-31T05:36:35.864Z,93.33
2023-03-31T05:37:35.844Z,99.06
2023-03-31T05:38:35.814Z,104.85
2023-03-31T05:39:35.768Z,113.89
2023-03-31T05:40:35.715Z,123.23
2023-03-31T05:41:35.682Z,128.38
2023-03-31T05:42:35.650Z,136.10
2023-03-31T05:43:35.601Z,146.61
2023-03-31T05:44:35.547Z,156.49
2023-03-31T05:45:35.505Z,163.35
2023-03-31T05:46:35.527Z,172.54
2023-03-31T05:47:35.457Z,186.89
2023-03-31T05:48:35.391Z,194.85
2023-03-31T05:49:35.378Z,197.72
2023-03-31T05:50:35.342Z,206.73
2023-03-31T05:51:35.321Z,213.02
2023-03-31T05:52:35.318Z,221.38
2023-03-31T05:53:35.320Z,228.49
2023-03-31T05:54:35.314Z,236.56
2023-03-31T05:55:35.330Z,243.64
2023-03-31T05:56:35.343Z,248.48
2023-03-31T05:57:35.366Z,250.00
2023-03-31T05:58:35.387Z,249.30
2023-03-31T05:59:35.399Z,249.94
2023-03-31T06:00:35.407Z,248.56
2023-03-31T06:01:35.468Z,250.00
2023-03-31T06:02:35.512Z,250.00
2023-03-31T06:03:35.546Z,249.60
2023-03-31T06:04:35.526Z,250.32
2023-03-31T06:05:35.445Z,248.17
2023-03-31T06:06:37.598Z,250.00
2023-03-31T06:07:35.574Z,250.00
2023-03-31T06:08:35.459Z,249.37
2023-03-31T06:09:35.494Z,248.67
2023-03-31T06:10:35.447Z,249.69
2023-03-31T06:11:35.474Z,250.00
2023-03-31T06:12:35.449Z,250.00
2023-03-31T06:13:35.443Z,250.00
2023-03-31T06:14:35.438Z,250.00
2023-03-31T06:15:35.436Z,249.50
2023-03-31T06:16:35.420Z,248.35
2023-03-31T06:17:36.843Z,249.86
2023-03-31T06:18:35.344Z,244.98
2023-03-31T06:19:35.274Z,250.00
2023-03-31T06:20:35.220Z,250.00
2023-03-31T06:21:35.150Z,249.88
2023-03-31T06:22:35.620Z,248.41
2023-03-31T06:23:36.042Z,248.60
2023-03-31T06:24:35.025Z,244.15
2023-03-31T06:25:47.880Z,220.76
2023-03-31T06:26:36.063Z,199.92
2023-03-31T06:27:34.918Z,182.54
2023-03-31T06:28:34.878Z,171.36
2023-03-31T06:29:34.893Z,160.13
2023-03-31T06:30:34.773Z,161.02
2023-03-31T06:31:34.765Z,147.15
2023-03-31T06:32:34.749Z,131.25
2023-03-31T06:33:35.116Z,121.02
2023-03-31T06:34:34.598Z,109.65
2023-03-31T06:35:34.553Z,106.01
2023-03-31T06:36:34.560Z,94.34
2023-03-31T06:37:34.545Z,72.48
2023-03-31T06:38:34.449Z,54.95
2023-03-31T06:39:34.408Z,40.24
2023-03-31T06:40:34.360Z,30.58
2023-03-31T06:41:34.330Z,25.39
2023-03-31T06:42:34.333Z,26.20
2023-03-31T06:43:34.349Z,28.44
2023-03-31T06:44:34.386Z,32.47
2023-03-31T06:45:34.310Z,34.28
2023-03-31T06:46:34.333Z,39.24
2023-03-31T06:47:34.288Z,42.91
2023-03-31T06:48:34.280Z,40.92
2023-03-31T06:49:34.229Z,42.88
2023-03-31T06:50:34.189Z,45.22
2023-03-31T06:51:34.177Z,48.56
2023-03-31T06:52:34.190Z,47.67
2023-03-31T06:53:34.108Z,42.42
2023-03-31T06:54:34.082Z,35.55
2023-03-31T06:55:34.084Z,30.46
2023-03-31T06:56:34.327Z,31.40
2023-03-31T06:57:34.123Z,36.31
2023-03-31T06:58:34.095Z,39.53
2023-03-31T06:59:34.064Z,41.64
2023-03-31T07:00:34.068Z,40.39
2023-03-31T07:01:34.067Z,41.32
2023-03-31T07:02:34.178Z,47.78
2023-03-31T07:03:34.069Z,49.03
2023-03-31T07:04:34.026Z,46.41
2023-03-31T07:05:35.045Z,47.66
2023-03-31T07:06:34.011Z,47.55
2023-03-31T07:07:34.133Z,47.13
2023-03-31T07:08:34.059Z,48.82
2023-03-31T07:09:34.078Z,46.20
2023-03-31T07:10:34.166Z,40.83
2023-03-31T07:11:34.097Z,44.81
2023-03-31T07:12:34.110Z,44.69
2023-03-31T07:13:34.096Z,44.75
2023-03-31T07:14:34.108Z,43.30
2023-03-31T07:15:34.118Z,43.38
2023-03-31T07:16:34.136Z,43.31
2023-03-31T07:17:34.147Z,41.45
2023-03-31T07:18:35.016Z,41.35
2023-03-31T07:19:34.090Z,40.11
2023-03-31T07:20:34.110Z,43.44
2023-03-31T07:21:34.236Z,42.99
2023-03-31T07:22:34.140Z,44.10
2023-03-31T07:23:34.172Z,41.62
2023-03-31T07:24:34.193Z,63.31
2023-03-31T07:25:34.248Z,49.38
2023-03-31T07:26:34.181Z,48.49
2023-03-31T07:27:34.171Z,53.93
2023-03-31T07:28:34.158Z,52.09
2023-03-31T07:29:34.159Z,50.74
2023-03-31T07:30:34.138Z,49.25
2023-03-31T07:31:34.160Z,42.70
2023-03-31T07:32:34.145Z,41.42
2023-03-31T07:33:34.139Z,36.32
2023-03-31T07:34:37.398Z,28.50
2023-03-31T07:35:34.078Z,25.45
2023-03-31T07:36:34.022Z,26.36
2023-03-31T07:37:33.955Z,24.66
2023-03-31T07:38:34.151Z,25.49
2023-03-31T07:39:33.865Z,25.58
2023-03-31T07:40:33.827Z,23.51
2023-03-31T07:41:33.774Z,23.10
2023-03-31T07:42:33.732Z,25.70
2023-03-31T07:43:33.697Z,23.54
2023-03-31T07:44:33.714Z,25.00
2023-03-31T07:45:33.588Z,27.17
2023-03-31T07:46:33.630Z,26.04
2023-03-31T07:47:33.568Z,26.27
2023-03-31T07:48:33.649Z,26.62
2023-03-31T07:49:33.430Z,27.23
2023-03-31T07:50:33.404Z,25.94
2023-03-31T07:51:34.164Z,25.47
2023-03-31T07:52:33.305Z,26.48
2023-03-31T07:53:33.269Z,25.73
2023-03-31T07:54:33.245Z,26.89
2023-03-31T07:55:33.231Z,25.00
2023-03-31T07:56:33.193Z,27.16
2023-03-31T07:57:33.202Z,25.98
2023-03-31T07:58:33.141Z,25.00
2023-03-31T07:59:33.140Z,27.11
2023-03-31T08:00:33.176Z,27.08
2023-03-31T08:01:33.186Z,27.23
2023-03-31T08:02:33.229Z,27.68
2023-03-31T08:03:33.165Z,28.53
2023-03-31T08:04:33.189Z,28.89
2023-03-31T08:05:33.117Z,29.64
2023-03-31T08:06:33.123Z,29.14
2023-03-31T08:07:33.152Z,29.51
2023-03-31T08:08:33.161Z,26.79
2023-03-31T08:09:33.165Z,29.95
2023-03-31T08:10:33.192Z,35.52
2023-03-31T08:11:33.199Z,36.78
2023-03-31T08:12:33.190Z,36.88
2023-03-31T08:13:33.144Z,37.36
2023-03-31T08:14:40.705Z,32.67
2023-03-31T08:15:34.086Z,31.46
2023-03-31T08:16:33.043Z,25.97
2023-03-31T08:17:33.015Z,21.85
2023-03-31T08:18:32.907Z,18.42
2023-03-31T08:19:32.860Z,13.32
2023-03-31T08:20:32.832Z,20.15
2023-03-31T08:21:32.825Z,25.00
2023-03-31T08:22:32.739Z,25.69
2023-03-31T08:23:32.696Z,24.83
2023-03-31T08:24:33.576Z,25.00
2023-03-31T08:25:32.606Z,25.02
2023-03-31T08:26:32.575Z,27.20
2023-03-31T08:27:32.533Z,32.34
2023-03-31T08:28:32.479Z,25.27
2023-03-31T08:29:32.457Z,22.76
2023-03-31T08:30:32.445Z,22.04
2023-03-31T08:31:33.104Z,26.43
2023-03-31T08:32:32.536Z,27.02
2023-03-31T08:33:32.544Z,35.63
2023-03-31T08:34:32.570Z,49.62
2023-03-31T08:35:32.670Z,46.37
2023-03-31T08:36:32.637Z,47.25
2023-03-31T08:37:33.595Z,56.80
2023-03-31T08:38:32.653Z,66.53
2023-03-31T08:39:32.647Z,73.85
2023-03-31T08:40:32.631Z,82.35
2023-03-31T08:41:32.654Z,87.63
2023-03-31T08:42:32.563Z,92.29
2023-03-31T08:43:32.510Z,98.72
2023-03-31T08:44:32.502Z,108.34
2023-03-31T08:45:32.493Z,115.89
2023-03-31T08:46:32.720Z,121.95
2023-03-31T08:47:32.513Z,125.24
2023-03-31T08:48:32.477Z,129.46
2023-03-31T08:49:33.083Z,130.33
2023-03-31T08:50:32.477Z,134.68
2023-03-31T08:51:32.505Z,145.17
2023-03-31T08:52:32.479Z,145.07
2023-03-31T08:53:32.476Z,149.42
2023-03-31T08:54:32.555Z,161.26
2023-03-31T08:55:32.510Z,164.08
2023-03-31T08:56:33.382Z,164.18
2023-03-31T08:57:32.401Z,164.80
2023-03-31T08:58:32.318Z,167.22
2023-03-31T08:59:32.188Z,170.91
2023-03-31T09:00:33.122Z,164.58
2023-03-31T09:01:35.889Z,166.63
2023-03-31T09:02:33.130Z,164.80
2023-03-31T09:03:32.020Z,167.52
2023-03-31T09:04:31.866Z,172.37
2023-03-31T09:05:31.777Z,181.51
2023-03-31T09:06:32.179Z,195.48
2023-03-31T09:07:31.630Z,200.00
2023-03-31T09:08:31.565Z,209.33
2023-03-31T09:09:31.495Z,217.62
2023-03-31T09:10:31.441Z,222.39
2023-03-31T09:11:31.435Z,229.19
2023-03-31T09:12:32.178Z,232.11
2023-03-31T09:13:31.203Z,233.10
2023-03-31T09:14:32.098Z,231.68
2023-03-31T09:15:31.071Z,231.86
2023-03-31T09:16:31.038Z,230.75
2023-03-31T09:17:30.973Z,229.77
2023-03-31T09:18:30.855Z,233.09
2023-03-31T09:19:31.601Z,235.15
2023-03-31T09:20:30.756Z,236.38
2023-03-31T09:21:31.611Z,238.05
2023-03-31T09:22:30.650Z,217.27
2023-03-31T09:23:30.604Z,190.80
2023-03-31T09:24:32.505Z,169.16
2023-03-31T09:25:31.187Z,153.72
2023-03-31T09:26:30.584Z,155.05
2023-03-31T09:27:30.610Z,158.38
2023-03-31T09:28:30.686Z,165.33
2023-03-31T09:29:30.507Z,174.57
2023-03-31T09:30:30.493Z,181.86
2023-03-31T09:31:31.197Z,188.40
2023-03-31T09:32:30.496Z,191.48
2023-03-31T09:33:30.428Z,194.74
2023-03-31T09:34:30.431Z,196.93
2023-03-31T09:35:30.402Z,199.94
2023-03-31T09:36:30.382Z,203.56
2023-03-31T09:37:30.315Z,211.17
2023-03-31T09:38:30.243Z,215.97
2023-03-31T09:39:31.189Z,217.27
2023-03-31T09:40:30.169Z,224.64
2023-03-31T09:41:31.846Z,221.48
2023-03-31T09:42:30.076Z,224.54
2023-03-31T09:43:29.987Z,224.17
2023-03-31T09:44:29.903Z,222.03
2023-03-31T09:45:30.200Z,219.51
2023-03-31T09:46:29.815Z,217.59
2023-03-31T09:47:29.722Z,215.88
2023-03-31T09:48:29.666Z,217.81
2023-03-31T09:49:29.545Z,217.70
2023-03-31T09:50:29.478Z,215.86
2023-03-31T09:51:29.419Z,218.44
2023-03-31T09:52:29.328Z,220.59
2023-03-31T09:53:29.274Z,220.67
2023-03-31T09:54:29.257Z,223.35
2023-03-31T09:55:39.620Z,223.59
2023-03-31T09:56:30.059Z,223.68
2023-03-31T09:57:31.250Z,223.94
2023-03-31T09:58:28.928Z,223.75
2023-03-31T09:59:28.840Z,224.25
2023-03-31T10:00:28.775Z,225.42
2023-03-31T10:01:28.730Z,227.23
2023-03-31T10:02:29.257Z,227.82
2023-03-31T10:03:28.551Z,228.73
2023-03-31T10:04:28.504Z,231.58
2023-03-31T10:05:28.420Z,231.45
2023-03-31T10:06:29.127Z,229.74
2023-03-31T10:07:28.272Z,229.62
2023-03-31T10:08:28.218Z,229.53
2023-03-31T10:09:28.161Z,229.04
2023-03-31T10:10:28.084Z,228.74
2023-03-31T10:11:28.012Z,228.03
2023-03-31T10:12:27.945Z,228.35
2023-03-31T10:13:27.899Z,227.43
2023-03-31T10:14:27.827Z,227.70
2023-03-31T10:15:27.843Z,227.10
2023-03-31T10:16:27.747Z,227.00
2023-03-31T10:17:27.682Z,227.75
2023-03-31T10:18:27.620Z,226.95
2023-03-31T10:19:27.550Z,226.88
2023-03-31T10:20:27.470Z,225.93
2023-03-31T10:21:27.391Z,225.65
2023-03-31T10:22:27.342Z,225.38
2023-03-31T10:23:28.269Z,225.45
2023-03-31T10:24:27.197Z,225.59
2023-03-31T10:25:27.142Z,225.26
2023-03-31T10:26:27.073Z,225.84
2023-03-31T10:27:27.021Z,224.76
2023-03-31T10:28:26.951Z,223.38
2023-03-31T10:29:26.896Z,222.70
2023-03-31T10:30:28.210Z,223.40
2023-03-31T10:31:26.937Z,221.96
2023-03-31T10:32:26.761Z,221.82
2023-03-31T10:33:26.721Z,220.50
2023-03-31T10:34:27.206Z,220.85
2023-03-31T10:35:27.636Z,220.27
2023-03-31T10:36:26.681Z,220.38
2023-03-31T10:37:26.676Z,220.20
2023-03-31T10:38:27.223Z,219.50
2023-03-31T10:39:26.669Z,218.94
2023-03-31T10:40:26.691Z,218.95
2023-03-31T10:41:26.804Z,217.44
2023-03-31T10:42:26.684Z,218.71
2023-03-31T10:43:26.696Z,217.74
2023-03-31T10:44:26.697Z,217.39
2023-03-31T10:45:36.971Z,216.90
2023-03-31T10:46:27.703Z,216.96
2023-03-31T10:47:26.624Z,217.01
2023-03-31T10:48:26.522Z,216.85
2023-03-31T10:49:26.431Z,216.62
2023-03-31T10:50:26.381Z,215.66
2023-03-31T10:51:26.341Z,214.20
2023-03-31T10:52:27.270Z,214.36
2023-03-31T10:53:26.149Z,215.03
2023-03-31T10:54:26.092Z,213.71
2023-03-31T10:55:26.025Z,212.87
2023-03-31T10:56:25.966Z,212.89
2023-03-31T10:57:26.017Z,212.26
2023-03-31T10:58:25.909Z,212.01
2023-03-31T10:59:26.232Z,211.91
2023-03-31T11:00:25.856Z,211.20
2023-03-31T11:01:25.902Z,211.19
2023-03-31T11:02:25.890Z,210.73
2023-03-31T11:03:25.982Z,209.71
2023-03-31T11:04:25.877Z,209.98
2023-03-31T11:05:25.966Z,209.13
2023-03-31T11:06:25.936Z,209.00
2023-03-31T11:07:25.929Z,208.84
2023-03-31T11:08:26.721Z,208.04
2023-03-31T11:09:25.962Z,208.13
2023-03-31T11:10:25.972Z,207.17
2023-03-31T11:11:25.966Z,206.37
2023-03-31T11:12:25.990Z,206.91
2023-03-31T11:13:26.009Z,206.83
2023-03-31T11:14:26.070Z,205.57
2023-03-31T11:15:26.068Z,205.56
2023-03-31T11:16:26.245Z,204.96
2023-03-31T11:17:26.180Z,204.15
2023-03-31T11:18:26.066Z,204.97
2023-03-31T11:19:26.040Z,204.35
2023-03-31T11:20:26.058Z,204.64
2023-03-31T11:21:26.054Z,203.51
2023-03-31T11:22:26.734Z,203.84
2023-03-31T11:23:26.038Z,204.29
2023-03-31T11:24:26.025Z,203.44
2023-03-31T11:25:26.107Z,203.34
2023-03-31T11:26:25.999Z,203.07
2023-03-31T11:27:25.959Z,201.45
2023-03-31T11:28:25.952Z,202.26
2023-03-31T11:29:25.950Z,201.46
2023-03-31T11:30:25.909Z,201.98
2023-03-31T11:31:26.002Z,201.11
2023-03-31T11:32:25.930Z,200.09
2023-03-31T11:33:25.870Z,199.36
2023-03-31T11:34:25.862Z,199.15
2023-03-31T11:35:25.839Z,199.03
2023-03-31T11:36:25.822Z,199.28
2023-03-31T11:37:25.805Z,197.79
2023-03-31T11:38:25.741Z,197.43
2023-03-31T11:39:25.687Z,198.14
2023-03-31T11:40:25.650Z,197.10
2023-03-31T11:41:25.635Z,197.47
2023-03-31T11:42:25.616Z,196.57
2023-03-31T11:43:25.598Z,196.06
2023-03-31T11:44:25.565Z,196.97
2023-03-31T11:45:25.530Z,195.87
2023-03-31T11:46:25.551Z,196.06
2023-03-31T11:47:25.477Z,195.42
2023-03-31T11:48:25.404Z,194.74
2023-03-31T11:49:25.363Z,194.79
2023-03-31T11:50:25.326Z,194.97
2023-03-31T11:51:25.286Z,193.69
2023-03-31T11:52:25.226Z,194.80
2023-03-31T11:53:25.177Z,194.28
2023-03-31T11:54:25.126Z,193.76
2023-03-31T11:55:25.082Z,194.11
2023-03-31T11:56:25.040Z,193.97
2023-03-31T11:57:25.138Z,193.04
2023-03-31T11:58:24.955Z,192.68
2023-03-31T11:59:24.903Z,192.25
2023-03-31T12:00:24.870Z,191.99
2023-03-31T12:01:24.818Z,192.22
2023-03-31T12:02:24.801Z,191.33
2023-03-31T12:03:24.895Z,191.86
2023-03-31T12:04:25.246Z,191.43
2023-03-31T12:05:24.767Z,190.18
2023-03-31T12:06:24.775Z,190.61
2023-03-31T12:07:24.596Z,190.08
2023-03-31T12:08:24.533Z,189.74
2023-03-31T12:09:24.512Z,190.36
2023-03-31T12:10:24.470Z,189.28
2023-03-31T12:11:24.413Z,189.32
2023-03-31T12:12:24.378Z,189.23
2023-03-31T12:13:24.353Z,187.96
2023-03-31T12:14:24.301Z,187.30
2023-03-31T12:15:24.278Z,187.84
2023-03-31T12:16:24.327Z,186.69
2023-03-31T12:17:24.231Z,187.59
2023-03-31T12:18:24.261Z,187.71
2023-03-31T12:19:24.141Z,187.09
2023-03-31T12:20:24.108Z,186.64
2023-03-31T12:21:24.073Z,186.54
2023-03-31T12:22:24.061Z,186.38
2023-03-31T12:23:24.022Z,187.14
2023-03-31T12:24:23.985Z,185.82
2023-03-31T12:25:23.949Z,186.86
2023-03-31T12:26:23.931Z,185.54
2023-03-31T12:27:23.892Z,185.09
2023-03-31T12:28:23.861Z,185.34
2023-03-31T12:29:23.839Z,184.20
2023-03-31T12:30:23.805Z,183.14
2023-03-31T12:31:23.842Z,183.74
2023-03-31T12:32:23.763Z,183.79
2023-03-31T12:33:23.706Z,183.81
2023-03-31T12:34:23.692Z,182.94
2023-03-31T12:35:23.645Z,183.19
2023-03-31T12:36:23.679Z,182.53
2023-03-31T12:37:23.587Z,182.07
2023-03-31T12:38:23.545Z,183.06
2023-03-31T12:39:23.518Z,181.19
2023-03-31T12:40:23.480Z,177.49
2023-03-31T12:41:23.479Z,172.02
2023-03-31T12:42:25.051Z,164.46
2023-03-31T12:43:23.405Z,161.68